createdAt,value
2019-02-18T00:00:15.990Z,17.60
2019-02-18T00:01:16.134Z,13.50
2019-02-18T00:02:16.279Z,17.60
2019-02-18T00:03:16.420Z,14.30
2019-02-18T00:04:16.573Z,16.40
2019-02-18T00:05:16.707Z,17.80
2019-02-18T00:06:16.852Z,17.20
2019-02-18T00:07:17.000Z,17.70
2019-02-18T00:08:17.142Z,16.50
2019-02-18T00:09:17.287Z,16.00
2019-02-18T00:10:17.436Z,13.70
2019-02-18T00:11:17.638Z,14.90
2019-02-18T00:12:17.720Z,12.50
2019-02-18T00:13:17.867Z,18.90
2019-02-18T00:14:18.007Z,14.60
2019-02-18T00:15:18.151Z,13.20
2019-02-18T00:16:18.295Z,16.10
2019-02-18T00:17:18.437Z,14.70
2019-02-18T00:18:18.578Z,15.40
2019-02-18T00:19:18.724Z,16.40
2019-02-18T00:20:18.867Z,14.10
2019-02-18T00:21:19.011Z,15.50
2019-02-18T00:22:19.155Z,14.10
2019-02-18T00:23:19.301Z,16.10
2019-02-18T00:24:19.445Z,16.60
2019-02-18T00:25:19.590Z,17.70
2019-02-18T00:26:19.741Z,15.70
2019-02-18T00:27:19.877Z,17.70
2019-02-18T00:28:20.017Z,19.80
2019-02-18T00:29:20.163Z,15.20
2019-02-18T00:30:20.307Z,16.00
2019-02-18T00:31:20.451Z,14.20
2019-02-18T00:32:20.595Z,17.80
2019-02-18T00:33:20.737Z,18.70
2019-02-18T00:34:20.881Z,20.60
2019-02-18T00:35:21.027Z,13.30
2019-02-18T00:36:21.171Z,16.70
2019-02-18T00:37:24.486Z,15.90
2019-02-18T00:38:21.460Z,14.40
2019-02-18T00:39:21.602Z,16.50
2019-02-18T00:40:21.745Z,18.20
2019-02-18T00:41:21.888Z,15.20
2019-02-18T00:42:22.035Z,16.20
2019-02-18T00:43:22.182Z,15.40
2019-02-18T00:44:22.323Z,15.30
2019-02-18T00:45:22.466Z,14.20
2019-02-18T00:46:22.607Z,18.30
2019-02-18T00:47:22.753Z,17.50
2019-02-18T00:48:22.897Z,16.70
2019-02-18T00:49:23.039Z,20.00
2019-02-18T00:50:23.187Z,17.90
2019-02-18T00:51:23.324Z,16.90
2019-02-18T00:52:23.468Z,18.80
2019-02-18T00:53:23.612Z,16.10
2019-02-18T00:54:23.755Z,15.90
2019-02-18T00:55:23.898Z,17.30
2019-02-18T00:56:24.043Z,17.90
2019-02-18T00:57:24.186Z,15.60
2019-02-18T00:58:24.330Z,17.20
2019-02-18T00:59:24.484Z,17.40
2019-02-18T01:00:24.618Z,15.50
2019-02-18T01:01:24.764Z,16.40
2019-02-18T01:02:24.906Z,16.80
2019-02-18T01:03:25.049Z,17.70
2019-02-18T01:04:25.223Z,17.50
2019-02-18T01:05:25.335Z,18.30
2019-02-18T01:06:25.477Z,17.20
2019-02-18T01:07:34.576Z,20.60
2019-02-18T01:08:25.768Z,20.00
2019-02-18T01:09:25.914Z,18.40
2019-02-18T01:10:26.053Z,16.90
2019-02-18T01:11:26.197Z,17.10
2019-02-18T01:12:26.341Z,16.90
2019-02-18T01:13:26.487Z,18.80
2019-02-18T01:14:26.630Z,19.90
2019-02-18T01:15:26.772Z,18.30
2019-02-18T01:16:26.915Z,20.40
2019-02-18T01:17:27.061Z,18.50
2019-02-18T01:18:27.202Z,23.40
2019-02-18T01:19:27.345Z,18.90
2019-02-18T01:20:27.490Z,18.50
2019-02-18T01:21:27.638Z,20.30
2019-02-18T01:22:27.777Z,22.90
2019-02-18T01:23:27.923Z,20.00
2019-02-18T01:24:28.067Z,20.10
2019-02-18T01:25:28.208Z,20.40
2019-02-18T01:26:28.356Z,19.00
2019-02-18T01:27:28.498Z,21.60
2019-02-18T01:28:28.638Z,23.00
2019-02-18T01:29:28.781Z,19.80
2019-02-18T01:30:28.927Z,20.90
2019-02-18T01:31:29.069Z,21.10
2019-02-18T01:32:29.218Z,23.90
2019-02-18T01:33:29.356Z,20.70
2019-02-18T01:34:29.497Z,19.30
2019-02-18T01:35:29.642Z,20.20
2019-02-18T01:36:29.786Z,19.80
2019-02-18T01:37:29.930Z,19.10
2019-02-18T01:38:30.613Z,24.30
2019-02-18T01:39:30.269Z,21.50
2019-02-18T01:40:30.409Z,20.10
2019-02-18T01:41:30.554Z,20.90
2019-02-18T01:42:30.700Z,20.50
2019-02-18T01:43:30.843Z,20.90
2019-02-18T01:44:30.985Z,19.10
2019-02-18T01:45:31.130Z,19.80
2019-02-18T01:46:31.279Z,21.50
2019-02-18T01:47:31.419Z,17.40
2019-02-18T01:48:31.557Z,20.90
2019-02-18T01:49:31.702Z,20.00
2019-02-18T01:50:31.840Z,18.50
2019-02-18T01:51:31.980Z,19.40
2019-02-18T01:52:32.123Z,20.60
2019-02-18T01:53:32.270Z,23.10
2019-02-18T01:54:32.410Z,22.40
2019-02-18T01:55:32.554Z,21.60
2019-02-18T01:56:32.699Z,19.20
2019-02-18T01:57:32.841Z,20.30
2019-02-18T01:58:33.003Z,20.20
2019-02-18T01:59:33.128Z,19.70
2019-02-18T02:00:33.274Z,20.50
2019-02-18T02:01:33.416Z,20.20
2019-02-18T02:02:33.559Z,18.40
2019-02-18T02:03:33.701Z,20.70
2019-02-18T02:04:33.847Z,21.20
2019-02-18T02:05:33.989Z,19.10
2019-02-18T02:06:34.134Z,23.40
2019-02-18T02:07:34.278Z,20.70
2019-02-18T02:08:34.423Z,18.90
2019-02-18T02:09:34.561Z,20.40
2019-02-18T02:10:34.704Z,19.40
2019-02-18T02:11:34.847Z,20.10
2019-02-18T02:12:34.990Z,21.30
2019-02-18T02:13:35.140Z,20.80
2019-02-18T02:14:35.273Z,20.40
2019-02-18T02:15:35.417Z,21.40
2019-02-18T02:16:35.561Z,18.30
2019-02-18T02:17:35.710Z,18.90
2019-02-18T02:18:35.854Z,20.40
2019-02-18T02:19:35.993Z,19.50
2019-02-18T02:20:36.137Z,20.80
2019-02-18T02:21:36.284Z,20.50
2019-02-18T02:22:36.426Z,23.50
2019-02-18T02:23:36.566Z,20.40
2019-02-18T02:24:36.708Z,21.40
2019-02-18T02:25:36.853Z,18.90
2019-02-18T02:26:36.997Z,23.80
2019-02-18T02:27:37.141Z,18.00
2019-02-18T02:28:37.284Z,20.30
2019-02-18T02:29:37.427Z,22.20
2019-02-18T02:30:37.572Z,19.00
2019-02-18T02:31:37.714Z,22.40
2019-02-18T02:32:37.858Z,19.60
2019-02-18T02:33:38.005Z,20.60
2019-02-18T02:34:38.146Z,21.20
2019-02-18T02:35:38.292Z,20.80
2019-02-18T02:36:38.439Z,21.20
2019-02-18T02:37:38.577Z,19.40
2019-02-18T02:38:38.726Z,20.50
2019-02-18T02:39:38.868Z,22.00
2019-02-18T02:40:39.010Z,22.60
2019-02-18T02:41:39.182Z,19.80
2019-02-18T02:42:39.298Z,22.70
2019-02-18T02:43:39.442Z,21.60
2019-02-18T02:44:39.584Z,19.70
2019-02-18T02:45:39.729Z,21.20
2019-02-18T02:46:39.877Z,18.80
2019-02-18T02:47:40.018Z,20.90
2019-02-18T02:48:40.162Z,18.80
2019-02-18T02:49:40.302Z,17.70
2019-02-18T02:50:40.447Z,20.60
2019-02-18T02:51:40.594Z,18.70
2019-02-18T02:52:40.738Z,22.30
2019-02-18T02:53:40.879Z,19.90
2019-02-18T02:54:41.024Z,20.90
2019-02-18T02:55:41.166Z,20.50
2019-02-18T02:56:41.309Z,17.70
2019-02-18T02:57:41.452Z,15.60
2019-02-18T02:58:41.595Z,17.20
2019-02-18T02:59:41.741Z,17.10
2019-02-18T03:00:41.885Z,19.20
2019-02-18T03:01:42.025Z,16.10
2019-02-18T03:02:42.169Z,19.10
2019-02-18T03:03:42.316Z,16.80
2019-02-18T03:04:42.458Z,18.60
2019-02-18T03:05:42.602Z,20.30
2019-02-18T03:06:42.743Z,18.70
2019-02-18T03:07:42.889Z,17.10
2019-02-18T03:08:43.032Z,18.30
2019-02-18T03:09:43.176Z,17.20
2019-02-18T03:10:43.320Z,17.40
2019-02-18T03:11:43.466Z,17.70
2019-02-18T03:12:43.613Z,20.80
2019-02-18T03:13:43.748Z,19.80
2019-02-18T03:14:43.890Z,18.00
2019-02-18T03:15:44.035Z,18.10
2019-02-18T03:16:44.177Z,18.60
2019-02-18T03:17:44.321Z,17.30
2019-02-18T03:18:44.464Z,19.60
2019-02-18T03:19:44.608Z,17.90
2019-02-18T03:20:44.752Z,17.00
2019-02-18T03:21:44.899Z,20.10
2019-02-18T03:22:45.038Z,18.80
2019-02-18T03:23:45.187Z,17.80
2019-02-18T03:24:45.328Z,18.10
2019-02-18T03:25:45.469Z,17.70
2019-02-18T03:26:45.614Z,19.40
2019-02-18T03:27:45.756Z,18.80
2019-02-18T03:28:45.906Z,19.60
2019-02-18T03:29:46.043Z,19.90
2019-02-18T03:30:46.195Z,21.20
2019-02-18T03:31:46.328Z,19.00
2019-02-18T03:32:46.470Z,19.00
2019-02-18T03:33:46.616Z,18.50
2019-02-18T03:34:46.756Z,18.70
2019-02-18T03:35:46.900Z,18.50
2019-02-18T03:36:47.045Z,18.00
2019-02-18T03:37:47.193Z,17.90
2019-02-18T03:38:47.330Z,20.50
2019-02-18T03:39:47.473Z,19.00
2019-02-18T03:40:47.619Z,19.00
2019-02-18T03:41:47.762Z,18.40
2019-02-18T03:42:47.908Z,19.00
2019-02-18T03:43:48.051Z,17.80
2019-02-18T03:44:48.193Z,20.60
2019-02-18T03:45:48.339Z,19.50
2019-02-18T03:46:50.623Z,17.40
2019-02-18T03:47:48.625Z,22.60
2019-02-18T03:48:48.770Z,18.40
2019-02-18T03:49:48.913Z,19.20
2019-02-18T03:50:49.056Z,17.50
2019-02-18T03:51:49.200Z,21.60
2019-02-18T03:52:49.345Z,19.80
2019-02-18T03:53:49.487Z,20.20
2019-02-18T03:54:49.632Z,20.60
2019-02-18T03:55:49.773Z,18.90
2019-02-18T03:56:50.014Z,18.50
2019-02-18T03:57:50.057Z,18.00
2019-02-18T03:58:50.200Z,22.20
2019-02-18T03:59:50.345Z,19.50
2019-02-18T04:00:50.485Z,18.60
2019-02-18T04:01:50.633Z,21.10
2019-02-18T04:02:50.772Z,18.50
2019-02-18T04:03:50.919Z,21.40
2019-02-18T04:04:51.057Z,25.20
2019-02-18T04:05:51.200Z,23.30
2019-02-18T04:06:51.344Z,24.70
2019-02-18T04:07:51.486Z,19.90
2019-02-18T04:08:51.632Z,25.80
2019-02-18T04:09:51.775Z,23.10
2019-02-18T04:10:51.919Z,24.40
2019-02-18T04:11:52.064Z,23.60
2019-02-18T04:12:52.203Z,23.60
2019-02-18T04:13:52.346Z,22.10
2019-02-18T04:14:52.486Z,22.60
2019-02-18T04:15:52.629Z,22.50
2019-02-18T04:16:52.778Z,19.90
2019-02-18T04:17:52.916Z,20.10
2019-02-18T04:18:53.057Z,23.70
2019-02-18T04:19:53.204Z,21.00
2019-02-18T04:20:53.344Z,21.40
2019-02-18T04:21:53.489Z,21.40
2019-02-18T04:22:53.632Z,19.80
2019-02-18T04:23:53.776Z,21.40
2019-02-18T04:24:53.919Z,23.30
2019-02-18T04:25:54.064Z,21.10
2019-02-18T04:26:54.207Z,23.20
2019-02-18T04:27:54.352Z,22.60
2019-02-18T04:28:54.490Z,22.90
2019-02-18T04:29:54.638Z,20.50
2019-02-18T04:30:54.779Z,21.60
2019-02-18T04:31:54.921Z,21.40
2019-02-18T04:32:55.064Z,22.80
2019-02-18T04:33:55.210Z,23.40
2019-02-18T04:34:55.354Z,21.60
2019-02-18T04:35:55.496Z,19.40
2019-02-18T04:36:55.639Z,21.10
2019-02-18T04:37:55.784Z,22.10
2019-02-18T04:38:55.930Z,24.60
2019-02-18T04:39:56.076Z,26.80
2019-02-18T04:40:56.213Z,26.20
2019-02-18T04:41:56.357Z,30.90
2019-02-18T04:42:56.497Z,30.90
2019-02-18T04:43:56.645Z,31.50
2019-02-18T04:44:56.786Z,33.20
2019-02-18T04:45:56.929Z,36.20
2019-02-18T04:46:57.078Z,37.10
2019-02-18T04:47:57.221Z,32.40
2019-02-18T04:48:57.360Z,31.90
2019-02-18T04:49:57.500Z,33.50
2019-02-18T04:50:57.647Z,34.30
2019-02-18T04:51:57.789Z,28.90
2019-02-18T04:52:57.932Z,30.20
2019-02-18T04:53:58.075Z,26.60
2019-02-18T04:54:58.218Z,25.50
2019-02-18T04:55:58.363Z,25.10
2019-02-18T04:56:58.521Z,25.40
2019-02-18T04:57:58.650Z,24.40
2019-02-18T04:58:58.789Z,23.50
2019-02-18T04:59:58.936Z,24.70
2019-02-18T05:00:59.080Z,22.40
2019-02-18T05:01:59.220Z,21.60
2019-02-18T05:02:59.364Z,22.30
2019-02-18T05:03:59.508Z,19.10
2019-02-18T05:04:59.652Z,20.90
2019-02-18T05:05:59.792Z,20.90
2019-02-18T05:06:59.937Z,21.00
2019-02-18T05:08:00.082Z,22.90
2019-02-18T05:09:05.213Z,21.00
2019-02-18T05:10:00.441Z,24.90
2019-02-18T05:11:00.545Z,23.60
2019-02-18T05:12:00.690Z,22.20
2019-02-18T05:13:00.833Z,20.60
2019-02-18T05:14:00.981Z,21.10
2019-02-18T05:15:01.121Z,23.30
2019-02-18T05:16:01.264Z,20.20
2019-02-18T05:17:01.407Z,21.10
2019-02-18T05:18:01.548Z,20.10
2019-02-18T05:19:01.693Z,18.70
2019-02-18T05:20:01.835Z,23.50
2019-02-18T05:21:01.979Z,22.00
2019-02-18T05:22:02.121Z,22.60
2019-02-18T05:23:02.264Z,21.30
2019-02-18T05:24:02.411Z,19.50
2019-02-18T05:25:02.551Z,19.70
2019-02-18T05:26:02.693Z,21.00
2019-02-18T05:27:02.836Z,20.00
2019-02-18T05:28:02.981Z,21.40
2019-02-18T05:29:03.123Z,20.40
2019-02-18T05:30:03.266Z,24.30
2019-02-18T05:31:03.421Z,20.30
2019-02-18T05:32:03.547Z,24.70
2019-02-18T05:33:03.693Z,21.90
2019-02-18T05:34:03.833Z,19.50
2019-02-18T05:35:03.975Z,22.70
2019-02-18T05:36:04.119Z,20.90
2019-02-18T05:37:04.264Z,21.80
2019-02-18T05:38:04.404Z,26.20
2019-02-18T05:39:04.545Z,22.40
2019-02-18T05:40:04.689Z,20.60
2019-02-18T05:41:04.832Z,24.60
2019-02-18T05:42:04.976Z,20.90
2019-02-18T05:43:05.125Z,17.20
2019-02-18T05:44:05.258Z,20.30
2019-02-18T05:45:05.406Z,19.60
2019-02-18T05:46:08.432Z,20.20
2019-02-18T05:47:05.688Z,20.60
2019-02-18T05:48:05.833Z,22.20
2019-02-18T05:49:05.978Z,20.50
2019-02-18T05:50:06.156Z,22.50
2019-02-18T05:51:06.261Z,22.10
2019-02-18T05:52:06.407Z,23.00
2019-02-18T05:53:06.552Z,21.20
2019-02-18T05:54:06.711Z,22.20
2019-02-18T05:55:06.837Z,23.50
2019-02-18T05:56:06.985Z,21.40
2019-02-18T05:57:07.133Z,23.40
2019-02-18T05:58:07.271Z,19.00
2019-02-18T05:59:07.410Z,21.40
2019-02-18T06:00:07.556Z,23.70
2019-02-18T06:01:07.696Z,23.90
2019-02-18T06:02:07.837Z,25.50
2019-02-18T06:03:07.994Z,21.10
2019-02-18T06:04:08.122Z,20.00
2019-02-18T06:05:08.266Z,18.90
2019-02-18T06:06:08.406Z,20.90
2019-02-18T06:07:08.552Z,20.00
2019-02-18T06:08:08.691Z,21.00
2019-02-18T06:09:08.839Z,22.40
2019-02-18T06:10:08.983Z,20.80
2019-02-18T06:11:09.118Z,19.80
2019-02-18T06:12:09.264Z,21.80
2019-02-18T06:13:09.403Z,20.90
2019-02-18T06:14:09.564Z,22.90
2019-02-18T06:15:09.702Z,21.90
2019-02-18T06:16:09.858Z,20.70
2019-02-18T06:17:09.999Z,23.90
2019-02-18T06:18:10.141Z,22.70
2019-02-18T06:19:10.291Z,22.50
2019-02-18T06:20:10.427Z,22.80
2019-02-18T06:21:10.568Z,24.90
2019-02-18T06:22:10.716Z,21.80
2019-02-18T06:23:10.875Z,22.80
2019-02-18T06:24:10.999Z,21.90
2019-02-18T06:25:11.146Z,22.60
2019-02-18T06:26:11.291Z,23.30
2019-02-18T06:27:11.428Z,21.10
2019-02-18T06:28:11.571Z,20.60
2019-02-18T06:29:11.715Z,24.00
2019-02-18T06:30:11.857Z,21.20
2019-02-18T06:31:11.999Z,23.00
2019-02-18T06:32:12.141Z,19.10
2019-02-18T06:33:12.286Z,25.80
2019-02-18T06:34:12.428Z,21.80
2019-02-18T06:35:12.583Z,18.90
2019-02-18T06:36:12.716Z,23.40
2019-02-18T06:37:12.859Z,21.50
2019-02-18T06:38:13.000Z,25.20
2019-02-18T06:39:13.469Z,21.40
2019-02-18T06:40:13.298Z,21.20
2019-02-18T06:41:13.385Z,21.70
2019-02-18T06:42:14.293Z,22.60
2019-02-18T06:43:13.695Z,22.20
2019-02-18T06:44:13.835Z,22.40
2019-02-18T06:45:13.980Z,20.80
2019-02-18T06:46:14.121Z,19.50
2019-02-18T06:47:14.268Z,22.20
2019-02-18T06:48:14.408Z,20.90
2019-02-18T06:49:14.559Z,23.30
2019-02-18T06:50:14.697Z,19.90
2019-02-18T06:51:17.048Z,22.80
2019-02-18T06:52:14.981Z,20.20
2019-02-18T06:53:15.124Z,19.40
2019-02-18T06:54:15.268Z,18.30
2019-02-18T06:55:15.412Z,18.70
2019-02-18T06:56:15.554Z,22.30
2019-02-18T06:57:15.696Z,21.70
2019-02-18T06:58:15.839Z,20.20
2019-02-18T06:59:15.981Z,19.00
2019-02-18T07:00:16.126Z,20.60
2019-02-18T07:01:16.268Z,21.70
2019-02-18T07:02:16.410Z,22.10
2019-02-18T07:03:18.473Z,19.90
2019-02-18T07:04:16.697Z,20.60
2019-02-18T07:05:16.839Z,18.90
2019-02-18T07:06:16.984Z,21.50
2019-02-18T07:07:17.127Z,19.40
2019-02-18T07:08:17.272Z,20.70
2019-02-18T07:09:17.433Z,21.60
2019-02-18T07:10:17.592Z,22.20
2019-02-18T07:11:17.736Z,21.00
2019-02-18T07:12:17.878Z,21.10
2019-02-18T07:13:18.011Z,22.20
2019-02-18T07:14:18.166Z,21.70
2019-02-18T07:15:18.300Z,21.10
2019-02-18T07:16:18.443Z,21.70
2019-02-18T07:17:18.588Z,20.40
2019-02-18T07:18:18.731Z,21.30
2019-02-18T07:19:18.874Z,21.40
2019-02-18T07:20:19.016Z,22.10
2019-02-18T07:21:19.161Z,22.90
2019-02-18T07:22:19.304Z,22.00
2019-02-18T07:23:19.446Z,24.40
2019-02-18T07:24:19.590Z,18.30
2019-02-18T07:25:19.741Z,18.90
2019-02-18T07:26:19.891Z,21.40
2019-02-18T07:27:20.097Z,21.90
2019-02-18T07:28:20.163Z,21.70
2019-02-18T07:29:20.308Z,23.20
2019-02-18T07:30:20.451Z,20.60
2019-02-18T07:31:20.598Z,20.50
2019-02-18T07:32:20.737Z,21.60
2019-02-18T07:33:20.880Z,21.20
2019-02-18T07:34:21.030Z,20.50
2019-02-18T07:35:21.170Z,18.60
2019-02-18T07:36:21.311Z,20.50
2019-02-18T07:37:21.463Z,18.00
2019-02-18T07:38:21.596Z,21.10
2019-02-18T07:39:21.740Z,20.80
2019-02-18T07:40:21.884Z,22.50
2019-02-18T07:41:22.027Z,16.90
2019-02-18T07:42:22.172Z,18.40
2019-02-18T07:43:23.179Z,21.80
2019-02-18T07:44:22.455Z,17.50
2019-02-18T07:45:22.601Z,17.30
2019-02-18T07:46:22.744Z,19.40
2019-02-18T07:47:22.889Z,17.20
2019-02-18T07:48:23.033Z,18.20
2019-02-18T07:49:23.175Z,20.00
2019-02-18T07:50:23.327Z,20.50
2019-02-18T07:51:23.464Z,17.50
2019-02-18T07:52:23.607Z,18.70
2019-02-18T07:53:23.751Z,18.80
2019-02-18T07:54:23.895Z,21.50
2019-02-18T07:55:24.042Z,20.30
2019-02-18T07:56:24.189Z,18.70
2019-02-18T07:57:24.328Z,17.80
2019-02-18T07:58:24.474Z,22.60
2019-02-18T07:59:24.618Z,21.40
2019-02-18T08:00:24.764Z,17.70
2019-02-18T08:01:24.910Z,20.70
2019-02-18T08:02:25.053Z,21.70
2019-02-18T08:03:25.197Z,19.90
2019-02-18T08:04:25.343Z,19.70
2019-02-18T08:05:25.485Z,20.20
2019-02-18T08:06:25.629Z,19.00
2019-02-18T08:07:25.771Z,21.20
2019-02-18T08:08:25.916Z,20.30
2019-02-18T08:09:26.058Z,20.90
2019-02-18T08:10:26.204Z,18.30
2019-02-18T08:11:26.348Z,21.90
2019-02-18T08:12:26.491Z,19.40
2019-02-18T08:13:26.908Z,23.60
2019-02-18T08:14:26.783Z,21.00
2019-02-18T08:15:26.926Z,18.00
2019-02-18T08:16:27.071Z,20.00
2019-02-18T08:17:27.215Z,19.70
2019-02-18T08:18:27.361Z,20.30
2019-02-18T08:19:27.504Z,21.40
2019-02-18T08:20:27.648Z,21.30
2019-02-18T08:21:27.792Z,20.40
2019-02-18T08:22:27.938Z,21.90
2019-02-18T08:23:28.084Z,17.90
2019-02-18T08:24:28.226Z,19.90
2019-02-18T08:25:28.372Z,22.30
2019-02-18T08:26:28.524Z,20.60
2019-02-18T08:27:28.658Z,19.90
2019-02-18T08:28:28.805Z,19.00
2019-02-18T08:29:28.948Z,18.90
2019-02-18T08:30:29.097Z,18.70
2019-02-18T08:31:29.239Z,18.20
2019-02-18T08:32:29.381Z,23.10
2019-02-18T08:33:29.527Z,20.30
2019-02-18T08:34:29.671Z,19.70
2019-02-18T08:35:29.819Z,20.50
2019-02-18T08:36:29.962Z,19.20
2019-02-18T08:37:30.404Z,17.80
2019-02-18T08:38:30.252Z,19.60
2019-02-18T08:39:30.402Z,18.10
2019-02-18T08:40:30.541Z,18.20
2019-02-18T08:41:30.685Z,20.70
2019-02-18T08:42:30.830Z,20.70
2019-02-18T08:43:30.974Z,22.70
2019-02-18T08:44:31.118Z,23.30
2019-02-18T08:45:31.263Z,21.90
2019-02-18T08:46:31.409Z,24.10
2019-02-18T08:47:31.557Z,21.30
2019-02-18T08:48:31.699Z,20.00
2019-02-18T08:49:31.844Z,21.80
2019-02-18T08:50:31.990Z,24.50
2019-02-18T08:51:32.132Z,18.70
2019-02-18T08:52:32.277Z,24.50
2019-02-18T08:53:32.426Z,18.50
2019-02-18T08:54:32.568Z,19.80
2019-02-18T08:55:32.712Z,20.60
2019-02-18T08:56:32.860Z,19.80
2019-02-18T08:57:33.003Z,21.40
2019-02-18T08:58:33.147Z,22.50
2019-02-18T08:59:33.292Z,24.40
2019-02-18T09:00:33.436Z,24.00
2019-02-18T09:01:33.580Z,24.80
2019-02-18T09:02:33.724Z,20.70
2019-02-18T09:03:33.876Z,22.90
2019-02-18T09:04:34.016Z,24.00
2019-02-18T09:05:34.159Z,21.10
2019-02-18T09:06:34.308Z,25.00
2019-02-18T09:07:34.456Z,24.90
2019-02-18T09:08:34.595Z,23.30
2019-02-18T09:09:34.740Z,24.20
2019-02-18T09:10:34.887Z,22.00
2019-02-18T09:11:35.031Z,23.90
2019-02-18T09:12:35.177Z,22.70
2019-02-18T09:13:35.321Z,25.80
2019-02-18T09:14:35.471Z,25.90
2019-02-18T09:15:35.613Z,22.20
2019-02-18T09:16:35.760Z,23.10
2019-02-18T09:17:35.905Z,22.60
2019-02-18T09:18:36.050Z,22.60
2019-02-18T09:19:36.196Z,24.60
2019-02-18T09:20:36.342Z,25.10
2019-02-18T09:21:36.489Z,21.80
2019-02-18T09:22:36.635Z,24.70
2019-02-18T09:23:36.780Z,19.80
2019-02-18T09:24:36.931Z,25.60
2019-02-18T09:25:37.073Z,20.20
2019-02-18T09:26:37.221Z,20.60
2019-02-18T09:27:37.365Z,24.10
2019-02-18T09:28:37.510Z,22.90
2019-02-18T09:29:37.658Z,23.90
2019-02-18T09:30:37.840Z,24.70
2019-02-18T09:31:37.948Z,22.80
2019-02-18T09:32:38.124Z,21.00
2019-02-18T09:33:38.241Z,21.60
2019-02-18T09:34:38.389Z,22.30
2019-02-18T09:35:38.532Z,23.10
2019-02-18T09:36:38.679Z,23.00
2019-02-18T09:37:38.825Z,23.20
2019-02-18T09:38:38.971Z,22.10
2019-02-18T09:39:39.116Z,25.20
2019-02-18T09:40:44.653Z,23.90
2019-02-18T09:41:39.421Z,23.80
2019-02-18T09:42:39.570Z,21.20
2019-02-18T09:43:39.710Z,23.80
2019-02-18T09:44:39.858Z,24.30
2019-02-18T09:45:40.007Z,21.00
2019-02-18T09:46:40.464Z,18.10
2019-02-18T09:47:40.303Z,21.90
2019-02-18T09:48:40.446Z,22.20
2019-02-18T09:49:40.604Z,22.40
2019-02-18T09:50:40.739Z,22.70
2019-02-18T09:51:40.889Z,21.40
2019-02-18T09:52:41.033Z,24.50
2019-02-18T09:53:41.178Z,20.50
2019-02-18T09:54:41.325Z,22.70
2019-02-18T09:55:41.550Z,19.30
2019-02-18T09:56:41.617Z,22.20
2019-02-18T09:57:41.763Z,21.90
2019-02-18T09:58:41.915Z,21.00
2019-02-18T09:59:42.058Z,21.20
2019-02-18T10:00:42.206Z,20.60
2019-02-18T10:01:43.198Z,20.80
2019-02-18T10:02:42.498Z,21.40
2019-02-18T10:03:42.645Z,26.90
2019-02-18T10:04:42.797Z,24.40
2019-02-18T10:05:42.941Z,20.30
2019-02-18T10:06:43.086Z,23.30
2019-02-18T10:07:43.235Z,24.60
2019-02-18T10:08:43.378Z,22.40
2019-02-18T10:09:43.528Z,22.80
2019-02-18T10:10:43.672Z,22.80
2019-02-18T10:11:43.822Z,25.50
2019-02-18T10:12:43.966Z,21.60
2019-02-18T10:13:44.116Z,22.60
2019-02-18T10:14:44.304Z,22.20
2019-02-18T10:15:44.407Z,23.80
2019-02-18T10:16:44.553Z,21.40
2019-02-18T10:17:44.701Z,21.20
2019-02-18T10:18:44.849Z,23.10
2019-02-18T10:19:44.998Z,18.50
2019-02-18T10:20:45.144Z,20.10
2019-02-18T10:21:45.290Z,20.70
2019-02-18T10:22:45.439Z,22.50
2019-02-18T10:23:45.587Z,20.60
2019-02-18T10:24:50.414Z,24.80
2019-02-18T10:25:45.885Z,21.40
2019-02-18T10:26:46.032Z,23.40
2019-02-18T10:27:46.182Z,22.60
2019-02-18T10:28:46.328Z,22.30
2019-02-18T10:29:46.474Z,22.10
2019-02-18T10:30:46.629Z,21.40
2019-02-18T10:31:46.773Z,21.50
2019-02-18T10:32:46.922Z,19.20
2019-02-18T10:33:47.068Z,20.90
2019-02-18T10:34:47.214Z,21.60
2019-02-18T10:35:47.364Z,22.20
2019-02-18T10:36:47.510Z,21.20
2019-02-18T10:37:54.846Z,20.70
2019-02-18T10:38:47.806Z,19.60
2019-02-18T10:39:47.955Z,22.10
2019-02-18T10:40:48.105Z,19.40
2019-02-18T10:41:48.252Z,21.00
2019-02-18T10:42:48.399Z,21.50
2019-02-18T10:43:48.548Z,21.40
2019-02-18T10:44:48.697Z,23.00
2019-02-18T10:45:48.844Z,20.50
2019-02-18T10:46:48.993Z,21.90
2019-02-18T10:47:49.142Z,23.00
2019-02-18T10:48:49.297Z,21.10
2019-02-18T10:49:49.439Z,19.50
2019-02-18T10:50:49.589Z,17.00
2019-02-18T10:51:49.735Z,20.60
2019-02-18T10:52:49.884Z,20.40
2019-02-18T10:53:50.034Z,19.90
2019-02-18T10:54:50.183Z,19.70
2019-02-18T10:55:50.335Z,18.80
2019-02-18T10:56:50.482Z,21.90
2019-02-18T10:57:50.634Z,18.20
2019-02-18T10:58:50.781Z,22.50
2019-02-18T10:59:50.937Z,20.30
2019-02-18T11:00:51.084Z,20.10
2019-02-18T11:01:51.247Z,17.70
2019-02-18T11:02:51.378Z,19.40
2019-02-18T11:03:51.527Z,21.90
2019-02-18T11:04:51.677Z,19.90
2019-02-18T11:05:51.830Z,21.70
2019-02-18T11:06:51.975Z,19.90
2019-02-18T11:07:52.126Z,20.10
2019-02-18T11:08:52.271Z,21.10
2019-02-18T11:09:52.424Z,23.40
2019-02-18T11:10:52.573Z,24.20
2019-02-18T11:11:52.719Z,24.20
2019-02-18T11:12:52.870Z,25.10
2019-02-18T11:13:53.017Z,25.80
2019-02-18T11:14:53.168Z,23.20
2019-02-18T11:15:53.324Z,23.10
2019-02-18T11:16:53.469Z,22.70
2019-02-18T11:17:53.616Z,22.40
2019-02-18T11:18:53.769Z,24.30
2019-02-18T11:19:53.918Z,25.20
2019-02-18T11:20:54.068Z,24.90
2019-02-18T11:21:54.219Z,25.10
2019-02-18T11:22:54.366Z,24.40
2019-02-18T11:23:54.516Z,24.70
2019-02-18T11:24:54.666Z,29.50
2019-02-18T11:25:54.819Z,23.10
2019-02-18T11:26:54.963Z,20.60
2019-02-18T11:27:55.110Z,22.10
2019-02-18T11:28:55.262Z,21.80
2019-02-18T11:29:55.413Z,22.20
2019-02-18T11:30:55.561Z,20.40
2019-02-18T11:31:55.712Z,24.20
2019-02-18T11:32:55.865Z,23.00
2019-02-18T11:33:56.012Z,21.80
2019-02-18T11:34:56.162Z,20.10
2019-02-18T11:35:56.319Z,20.00
2019-02-18T11:36:56.463Z,18.70
2019-02-18T11:37:56.615Z,22.00
2019-02-18T11:38:56.771Z,20.00
2019-02-18T11:39:56.914Z,21.10
2019-02-18T11:40:57.069Z,19.30
2019-02-18T11:41:57.215Z,19.20
2019-02-18T11:42:57.367Z,19.60
2019-02-18T11:43:57.518Z,19.60
2019-02-18T11:44:57.670Z,22.80
2019-02-18T11:45:57.822Z,19.50
2019-02-18T11:46:57.973Z,18.80
2019-02-18T11:47:58.124Z,20.90
2019-02-18T11:48:58.273Z,17.60
2019-02-18T11:49:58.427Z,18.70
2019-02-18T11:50:58.574Z,18.80
2019-02-18T11:52:00.144Z,19.80
2019-02-18T11:52:58.886Z,19.90
2019-02-18T11:53:59.029Z,21.90
2019-02-18T11:54:59.182Z,20.10
2019-02-18T11:55:59.331Z,19.00
2019-02-18T11:56:59.485Z,20.10
2019-02-18T11:57:59.636Z,20.00
2019-02-18T11:58:59.785Z,19.30
2019-02-18T11:59:59.938Z,20.50
2019-02-18T12:01:00.092Z,19.40
2019-02-18T12:02:00.240Z,20.10
2019-02-18T12:03:03.688Z,20.50
2019-02-18T12:04:00.547Z,19.00
2019-02-18T12:05:00.696Z,23.00
2019-02-18T12:06:00.847Z,21.70
2019-02-18T12:07:01.001Z,22.20
2019-02-18T12:08:01.154Z,21.30
2019-02-18T12:09:01.304Z,21.10
2019-02-18T12:10:01.454Z,20.80
2019-02-18T12:11:01.635Z,20.50
2019-02-18T12:12:01.756Z,21.80
2019-02-18T12:13:01.910Z,21.50
2019-02-18T12:14:02.063Z,21.00
2019-02-18T12:15:02.215Z,21.50
2019-02-18T12:16:02.370Z,23.60
2019-02-18T12:17:02.519Z,24.90
2019-02-18T12:18:02.671Z,21.60
2019-02-18T12:19:02.822Z,22.90
2019-02-18T12:20:02.975Z,23.20
2019-02-18T12:21:03.128Z,23.10
2019-02-18T12:22:03.279Z,24.00
2019-02-18T12:23:03.433Z,25.10
2019-02-18T12:24:03.585Z,26.70
2019-02-18T12:25:03.743Z,27.40
2019-02-18T12:26:03.889Z,28.20
2019-02-18T12:27:04.042Z,30.00
2019-02-18T12:28:04.194Z,30.80
2019-02-18T12:29:04.347Z,28.40
2019-02-18T12:30:04.496Z,29.80
2019-02-18T12:31:04.650Z,29.00
2019-02-18T12:32:04.803Z,25.70
2019-02-18T12:33:04.956Z,26.00
2019-02-18T12:34:05.107Z,27.50
2019-02-18T12:35:05.257Z,25.40
2019-02-18T12:36:05.412Z,25.30
2019-02-18T12:37:05.564Z,23.40
2019-02-18T12:38:05.718Z,29.00
2019-02-18T12:39:05.869Z,25.50
2019-02-18T12:40:06.024Z,26.40
2019-02-18T12:41:06.174Z,25.00
2019-02-18T12:42:06.326Z,24.20
2019-02-18T12:43:06.485Z,26.10
2019-02-18T12:44:06.634Z,23.30
2019-02-18T12:45:06.788Z,23.40
2019-02-18T12:46:15.541Z,21.30
2019-02-18T12:47:07.092Z,20.80
2019-02-18T12:48:07.245Z,21.30
2019-02-18T12:49:07.400Z,24.00
2019-02-18T12:50:07.551Z,19.70
2019-02-18T12:51:07.704Z,20.80
2019-02-18T12:52:07.856Z,22.00
2019-02-18T12:53:08.018Z,20.50
2019-02-18T12:54:08.165Z,18.80